Terminal Aerodrome Forecast
Issued by NWS

Home | Current Version | Previous Version | Text Only | Print | Product List | Glossary On
Versions: 1 2 3 4 5 6 7 8 9 10 11 12 13 14 15 16 17 18 19 20 21 22 23 24
000
FTUS45 KLKN 301720
TAFEKO
TAF
KEKO 301720Z 3018/0118 VRB06KT P6SM SCT080
     FM302000 19010KT P6SM SCT080 SCT250
     FM010100 20007KT P6SM VCSH SCT080 BKN150 BKN250
     FM010500 22008KT P6SM SCT080 SCT250=

USA.gov is the U.S. government's official web portal to all federal, state and local government web resources and services.